createdAt,value
2022-12-09T00:02:30.427Z,29.00
2022-12-09T00:12:33.450Z,24.10
2022-12-09T00:22:35.915Z,28.47
2022-12-09T00:32:38.554Z,25.83
2022-12-09T00:42:41.330Z,25.20
2022-12-09T00:52:43.850Z,28.23
2022-12-09T01:02:46.467Z,29.73
2022-12-09T01:12:49.022Z,24.40
2022-12-09T01:22:51.505Z,34.33
2022-12-09T01:32:53.949Z,28.73
2022-12-09T01:42:56.531Z,31.63
2022-12-09T01:52:59.492Z,30.07
2022-12-09T02:03:02.795Z,30.17
2022-12-09T02:13:24.345Z,32.67
2022-12-09T02:23:40.620Z,29.23
2022-12-09T02:34:04.910Z,27.43
2022-12-09T02:44:15.966Z,20.23
2022-12-09T02:54:19.746Z,24.73
2022-12-09T03:04:27.135Z,20.97
2022-12-09T03:14:38.392Z,25.67
2022-12-09T03:24:43.699Z,23.40
2022-12-09T03:34:51.154Z,28.07
2022-12-09T03:45:04.293Z,29.13
2022-12-09T03:55:30.165Z,22.43
2022-12-09T04:05:32.709Z,23.08
2022-12-09T04:15:35.285Z,25.00
2022-12-09T04:25:38.283Z,25.53
2022-12-09T04:35:40.762Z,25.97
2022-12-09T04:45:43.307Z,25.73
2022-12-09T04:55:46.169Z,29.10
2022-12-09T05:05:49.304Z,27.53
2022-12-09T05:15:51.972Z,28.43
2022-12-09T05:25:56.074Z,26.40
2022-12-09T05:35:58.992Z,25.53
2022-12-09T05:46:02.749Z,24.83
2022-12-09T05:56:06.189Z,21.03
2022-12-09T06:06:11.876Z,22.47
2022-12-09T06:16:17.711Z,24.57
2022-12-09T06:26:30.756Z,26.57
2022-12-09T06:36:33.871Z,29.83
2022-12-09T06:46:37.578Z,23.23
2022-12-09T06:56:40.639Z,28.23
2022-12-09T07:06:45.289Z,28.43
2022-12-09T07:16:48.974Z,23.58
2022-12-09T07:26:52.664Z,25.10
2022-12-09T07:36:56.065Z,27.30
2022-12-09T07:46:59.390Z,29.30
2022-12-09T07:57:03.015Z,26.73
2022-12-09T08:07:06.395Z,26.87
2022-12-09T08:17:09.672Z,21.37
2022-12-09T08:27:12.690Z,23.90
2022-12-09T08:37:15.859Z,23.30
2022-12-09T08:47:19.135Z,19.23
2022-12-09T08:57:26.275Z,20.60
2022-12-09T09:07:31.051Z,19.90
2022-12-09T09:17:34.049Z,20.48
2022-12-09T09:27:37.290Z,18.93
2022-12-09T09:37:40.353Z,22.10
2022-12-09T09:47:48.687Z,23.33
2022-12-09T09:57:56.901Z,20.50
2022-12-09T10:08:31.409Z,19.90
2022-12-09T10:18:43.379Z,16.90
2022-12-09T10:28:51.514Z,19.60
2022-12-09T10:39:01.642Z,19.80
2022-12-09T10:49:05.672Z,21.37
2022-12-09T10:59:10.573Z,19.47
2022-12-09T11:09:26.089Z,18.87
2022-12-09T11:19:32.521Z,16.93
2022-12-09T11:29:35.106Z,20.53
2022-12-09T11:39:39.233Z,20.83
2022-12-09T11:49:51.533Z,22.03
2022-12-09T12:00:02.520Z,19.17
2022-12-09T12:10:13.538Z,21.73
2022-12-09T12:20:16.703Z,15.50
2022-12-09T12:30:24.446Z,15.23
2022-12-09T12:40:44.046Z,17.33
2022-12-09T12:50:55.672Z,12.47
2022-12-09T13:01:13.584Z,14.37
2022-12-09T13:11:25.968Z,14.43
2022-12-09T13:21:28.986Z,16.37
2022-12-09T13:31:35.806Z,18.37
2022-12-09T13:42:00.407Z,15.60
2022-12-09T13:52:03.476Z,15.67
2022-12-09T14:02:43.443Z,17.30
2022-12-09T14:12:51.872Z,16.83
2022-12-09T14:23:12.272Z,16.07
2022-12-09T14:33:35.740Z,22.17
2022-12-09T14:44:04.172Z,14.57
2022-12-09T14:54:22.895Z,13.67
2022-12-09T15:04:35.562Z,14.90
2022-12-09T15:14:41.082Z,15.50
2022-12-09T15:24:50.181Z,13.03
2022-12-09T15:34:54.876Z,15.67
2022-12-09T15:45:14.819Z,16.10
2022-12-09T15:55:22.458Z,18.77
2022-12-09T16:05:26.409Z,18.07
2022-12-09T16:15:47.943Z,20.57
2022-12-09T16:25:51.189Z,18.30
2022-12-09T16:36:06.612Z,20.57
2022-12-09T16:56:20.418Z,17.50
2022-12-09T17:06:22.974Z,20.30
2022-12-09T17:16:27.125Z,19.20
2022-12-09T17:26:29.820Z,22.20
2022-12-09T17:36:34.909Z,20.50
2022-12-09T17:56:39.905Z,22.03
2022-12-09T18:06:45.620Z,23.07
2022-12-09T18:16:49.735Z,24.43
2022-12-09T18:26:52.611Z,23.30
2022-12-09T18:36:55.710Z,24.60
2022-12-09T18:46:58.331Z,22.77
2022-12-09T18:57:04.302Z,23.20
2022-12-09T19:07:06.944Z,21.30
2022-12-09T19:17:09.883Z,22.40
2022-12-09T19:27:13.919Z,21.60
2022-12-09T19:37:16.679Z,20.50
2022-12-09T19:47:19.228Z,23.03
2022-12-09T19:57:22.968Z,24.00
2022-12-09T20:07:25.827Z,24.03
2022-12-09T20:17:28.711Z,26.00
2022-12-09T20:27:31.350Z,27.40
2022-12-09T20:37:33.874Z,21.27
2022-12-09T20:47:36.728Z,27.77
2022-12-09T20:57:39.812Z,27.87
2022-12-09T21:07:42.903Z,25.43
2022-12-09T21:17:49.684Z,24.17
2022-12-09T21:27:52.529Z,24.63
2022-12-09T21:37:56.317Z,25.73
2022-12-09T21:47:58.924Z,28.30
2022-12-09T21:58:01.560Z,22.10
2022-12-09T22:08:04.767Z,23.43
2022-12-09T22:18:07.306Z,24.20
2022-12-09T22:28:09.927Z,24.87
2022-12-09T22:38:14.686Z,26.60
2022-12-09T22:48:17.817Z,26.73
2022-12-09T22:58:20.375Z,26.37
2022-12-09T23:08:23.054Z,25.80
2022-12-09T23:18:25.436Z,26.67
2022-12-09T23:28:27.867Z,27.90
2022-12-09T23:38:30.227Z,29.33
2022-12-09T23:48:33.279Z,28.93
2022-12-09T23:58:35.873Z,33.87
